Airfield :







YOU CAN JOIN US ON...

 
LOGIN :

Register | Disclaimer

   EN    FR    IT 

 









Legend :    VFR   Marginal VFR   IFR   Intensive IFR   Very Intensive IFR
Visi :
Ceiling :
>= 8 km
>= 3000ft
5 to 8 km
1000 to 3000 ft
1500m to 5 km
500 to 1000 ft
800 to 1500m
200 to 500 ft
< 800m
< 200 ft
Symbols :   Thunderstorms  Fog  Heavy snow  Heavy precipitations  Wind > 20 kt






- Airport Elevation : 20 ft
- IATA code : BOS


KBOS - General Edward Lawrence Logan International

CURRENT METAR :
  • 010154Z 17018KT 1 1/4SM +RA BR SCT015 OVC027 16/14 A2958 RMK AO2 PK WND 16037/0138 SLP015 P0022 T01560144 $

EXPIRED METARs :
  • 010144Z 16023G37KT 1 1/2SM R04R/4500VP6000FT RA BR SCT013 BKN020 OVC033 14/14 A2958 RMK AO2 PK WND 16037/0138 P0012 T01440139
  • 010054Z 17024G31KT 7SM -RA OVC016 15/14 A2957 RMK AO2 PK WND 16042/0011 SLP013 P0004 T01500139
  • 302354Z 16028G38KT 4SM -RA BR SCT015 BKN021 OVC050 15/13 A2959 RMK AO2 PK WND 16038/2257 SLP020 P0005 60035 T01500133 10150 20106 58023

TAF KBOS
Valid from the 01 at 00:00 until the 02 at 06:00 UTC


302324Z 0100/0206 15023G49KT 6SM -RA BR OVC025
FM010500 17018G28KT 3SM BR VCSH OVC008
FM011000 16011G17KT P6SM BKN008
FM011600 18012G24KT P6SM BKN020
FM011900 19014G26KT P6SM BKN060
FM012200 21014G23KT P6SM SCT200
KZBW FIR / North America



MET'MAP, your aeronautical weather chart ! - Copyright ORBIFLY December 2007 - Disclaimer

ORBIFLY MET'MAP TEAM :

Programming & Development : Alexandra Zaïnal
Concept & original design : Baudouin d'Aumeries
Assistance for programming : Marc-Olivier Méhu
Technical & hardware support : Manuel Goepfert

Contact : metmap@orbifly.com




SOURCES & CREDITS :

   NOAA